sensor_id;sensor_type;location;lat;lon;timestamp;P1;durP1;ratioP1;P2;durP2;ratioP2
71759;SDS011;59919;48.112;16.280;2022-08-19T00:02:12;0.95;;;0.70;;
71759;SDS011;59919;48.112;16.280;2022-08-19T00:04:43;0.73;;;0.70;;
71759;SDS011;59919;48.112;16.280;2022-08-19T00:07:18;1.10;;;0.75;;
71759;SDS011;59919;48.112;16.280;2022-08-19T00:09:52;0.80;;;0.80;;
71759;SDS011;59919;48.112;16.280;2022-08-19T00:12:26;0.88;;;0.77;;
71759;SDS011;59919;48.112;16.280;2022-08-19T00:15:02;0.70;;;0.70;;
71759;SDS011;59919;48.112;16.280;2022-08-19T00:17:33;1.60;;;0.60;;
71759;SDS011;59919;48.112;16.280;2022-08-19T00:20:05;0.80;;;0.80;;
71759;SDS011;59919;48.112;16.280;2022-08-19T00:22:37;0.77;;;0.77;;
71759;SDS011;59919;48.112;16.280;2022-08-19T00:25:11;0.73;;;0.60;;
71759;SDS011;59919;48.112;16.280;2022-08-19T00:27:46;0.65;;;0.65;;
71759;SDS011;59919;48.112;16.280;2022-08-19T00:30:21;0.80;;;0.63;;
71759;SDS011;59919;48.112;16.280;2022-08-19T00:32:58;0.70;;;0.70;;
71759;SDS011;59919;48.112;16.280;2022-08-19T00:35:30;0.60;;;0.60;;
71759;SDS011;59919;48.112;16.280;2022-08-19T00:38:04;0.80;;;0.63;;
71759;SDS011;59919;48.112;16.280;2022-08-19T00:40:39;0.73;;;0.70;;
71759;SDS011;59919;48.112;16.280;2022-08-19T00:43:21;0.80;;;0.70;;
71759;SDS011;59919;48.112;16.280;2022-08-19T00:45:56;0.80;;;0.80;;
71759;SDS011;59919;48.112;16.280;2022-08-19T00:48:27;0.70;;;0.70;;
71759;SDS011;59919;48.112;16.280;2022-08-19T00:51:04;1.10;;;0.80;;
71759;SDS011;59919;48.112;16.280;2022-08-19T00:56:13;0.57;;;0.57;;
71759;SDS011;59919;48.112;16.280;2022-08-19T00:58:45;0.98;;;0.90;;
71759;SDS011;59919;48.112;16.280;2022-08-19T01:01:19;0.80;;;0.80;;
71759;SDS011;59919;48.112;16.280;2022-08-19T01:03:54;0.95;;;0.68;;
71759;SDS011;59919;48.112;16.280;2022-08-19T01:06:25;0.60;;;0.60;;
71759;SDS011;59919;48.112;16.280;2022-08-19T01:09:10;0.70;;;0.60;;
71759;SDS011;59919;48.112;16.280;2022-08-19T01:11:41;0.70;;;0.70;;
71759;SDS011;59919;48.112;16.280;2022-08-19T01:14:20;1.23;;;0.80;;
71759;SDS011;59919;48.112;16.280;2022-08-19T01:16:53;1.02;;;0.60;;
71759;SDS011;59919;48.112;16.280;2022-08-19T01:19:29;0.80;;;0.60;;
71759;SDS011;59919;48.112;16.280;2022-08-19T01:22:06;0.70;;;0.70;;
71759;SDS011;59919;48.112;16.280;2022-08-19T01:24:41;1.15;;;0.77;;
71759;SDS011;59919;48.112;16.280;2022-08-19T01:27:14;1.33;;;0.80;;
71759;SDS011;59919;48.112;16.280;2022-08-19T01:29:47;0.73;;;0.68;;
71759;SDS011;59919;48.112;16.280;2022-08-19T01:32:21;0.70;;;0.70;;
71759;SDS011;59919;48.112;16.280;2022-08-19T01:34:52;0.82;;;0.60;;
71759;SDS011;59919;48.112;16.280;2022-08-19T01:37:28;0.63;;;0.50;;
71759;SDS011;59919;48.112;16.280;2022-08-19T01:40:02;0.95;;;0.75;;
71759;SDS011;59919;48.112;16.280;2022-08-19T01:42:39;0.68;;;0.68;;
71759;SDS011;59919;48.112;16.280;2022-08-19T01:45:15;0.95;;;0.68;;
71759;SDS011;59919;48.112;16.280;2022-08-19T01:47:50;0.60;;;0.60;;
71759;SDS011;59919;48.112;16.280;2022-08-19T01:50:34;0.77;;;0.70;;
71759;SDS011;59919;48.112;16.280;2022-08-19T01:53:07;0.63;;;0.60;;
71759;SDS011;59919;48.112;16.280;2022-08-19T01:55:41;0.80;;;0.80;;
71759;SDS011;59919;48.112;16.280;2022-08-19T01:58:14;0.80;;;0.80;;
71759;SDS011;59919;48.112;16.280;2022-08-19T02:00:49;0.77;;;0.60;;
71759;SDS011;59919;48.112;16.280;2022-08-19T02:03:24;1.48;;;0.68;;
71759;SDS011;59919;48.112;16.280;2022-08-19T02:08:36;0.80;;;0.70;;
71759;SDS011;59919;48.112;16.280;2022-08-19T02:11:17;0.88;;;0.60;;
71759;SDS011;59919;48.112;16.280;2022-08-19T02:13:53;0.70;;;0.70;;
71759;SDS011;59919;48.112;16.280;2022-08-19T02:16:25;0.68;;;0.68;;
71759;SDS011;59919;48.112;16.280;2022-08-19T02:18:56;0.80;;;0.52;;
71759;SDS011;59919;48.112;16.280;2022-08-19T02:21:32;0.75;;;0.63;;
71759;SDS011;59919;48.112;16.280;2022-08-19T02:24:05;1.38;;;0.70;;
71759;SDS011;59919;48.112;16.280;2022-08-19T02:26:41;1.65;;;0.75;;
71759;SDS011;59919;48.112;16.280;2022-08-19T02:29:15;0.80;;;0.60;;
71759;SDS011;59919;48.112;16.280;2022-08-19T02:31:48;1.15;;;0.70;;
71759;SDS011;59919;48.112;16.280;2022-08-19T02:34:22;0.82;;;0.77;;
71759;SDS011;59919;48.112;16.280;2022-08-19T02:36:56;0.60;;;0.60;;
71759;SDS011;59919;48.112;16.280;2022-08-19T02:39:32;1.08;;;0.70;;
71759;SDS011;59919;48.112;16.280;2022-08-19T02:42:03;1.48;;;0.70;;
71759;SDS011;59919;48.112;16.280;2022-08-19T02:44:38;1.10;;;0.60;;
71759;SDS011;59919;48.112;16.280;2022-08-19T02:47:10;0.60;;;0.60;;
71759;SDS011;59919;48.112;16.280;2022-08-19T02:49:50;1.27;;;0.70;;
71759;SDS011;59919;48.112;16.280;2022-08-19T02:52:28;0.73;;;0.47;;
71759;SDS011;59919;48.112;16.280;2022-08-19T02:55:03;0.75;;;0.70;;
71759;SDS011;59919;48.112;16.280;2022-08-19T02:57:38;0.68;;;0.68;;
71759;SDS011;59919;48.112;16.280;2022-08-19T03:00:14;0.60;;;0.60;;
71759;SDS011;59919;48.112;16.280;2022-08-19T03:02:51;0.77;;;0.70;;
71759;SDS011;59919;48.112;16.280;2022-08-19T03:05:24;0.60;;;0.60;;
71759;SDS011;59919;48.112;16.280;2022-08-19T03:07:55;1.50;;;0.70;;
71759;SDS011;59919;48.112;16.280;2022-08-19T03:10:26;0.60;;;0.60;;
71759;SDS011;59919;48.112;16.280;2022-08-19T03:13:00;1.00;;;0.85;;
71759;SDS011;59919;48.112;16.280;2022-08-19T03:15:31;0.80;;;0.60;;
71759;SDS011;59919;48.112;16.280;2022-08-19T03:18:05;0.60;;;0.60;;
71759;SDS011;59919;48.112;16.280;2022-08-19T03:20:40;0.80;;;0.70;;
71759;SDS011;59919;48.112;16.280;2022-08-19T03:23:18;0.50;;;0.45;;
71759;SDS011;59919;48.112;16.280;2022-08-19T03:25:54;0.82;;;0.80;;
71759;SDS011;59919;48.112;16.280;2022-08-19T03:28:26;1.17;;;0.70;;
71759;SDS011;59919;48.112;16.280;2022-08-19T03:31:06;1.05;;;0.65;;
71759;SDS011;59919;48.112;16.280;2022-08-19T03:33:45;2.13;;;0.73;;
71759;SDS011;59919;48.112;16.280;2022-08-19T03:36:18;0.70;;;0.70;;
71759;SDS011;59919;48.112;16.280;2022-08-19T03:38:53;0.75;;;0.63;;
71759;SDS011;59919;48.112;16.280;2022-08-19T03:41:27;0.70;;;0.70;;
71759;SDS011;59919;48.112;16.280;2022-08-19T03:44:01;0.73;;;0.65;;
71759;SDS011;59919;48.112;16.280;2022-08-19T03:46:45;0.65;;;0.65;;
71759;SDS011;59919;48.112;16.280;2022-08-19T03:51:56;0.60;;;0.60;;
71759;SDS011;59919;48.112;16.280;2022-08-19T03:54:31;0.68;;;0.68;;
71759;SDS011;59919;48.112;16.280;2022-08-19T03:57:02;0.57;;;0.57;;
71759;SDS011;59919;48.112;16.280;2022-08-19T03:59:36;1.02;;;0.70;;
71759;SDS011;59919;48.112;16.280;2022-08-19T04:02:09;1.13;;;0.70;;
71759;SDS011;59919;48.112;16.280;2022-08-19T04:04:44;0.70;;;0.70;;
71759;SDS011;59919;48.112;16.280;2022-08-19T04:07:15;0.88;;;0.70;;
71759;SDS011;59919;48.112;16.280;2022-08-19T04:09:51;1.60;;;0.60;;
71759;SDS011;59919;48.112;16.280;2022-08-19T04:12:24;1.17;;;0.70;;
71759;SDS011;59919;48.112;16.280;2022-08-19T04:15:01;0.88;;;0.80;;
71759;SDS011;59919;48.112;16.280;2022-08-19T04:17:34;0.60;;;0.60;;
71759;SDS011;59919;48.112;16.280;2022-08-19T04:20:08;0.82;;;0.70;;
71759;SDS011;59919;48.112;16.280;2022-08-19T04:22:40;0.40;;;0.40;;
71759;SDS011;59919;48.112;16.280;2022-08-19T04:25:11;0.68;;;0.68;;
71759;SDS011;59919;48.112;16.280;2022-08-19T04:27:45;0.85;;;0.70;;
71759;SDS011;59919;48.112;16.280;2022-08-19T04:30:21;1.58;;;0.60;;
71759;SDS011;59919;48.112;16.280;2022-08-19T04:32:55;0.75;;;0.70;;
71759;SDS011;59919;48.112;16.280;2022-08-19T04:35:34;0.98;;;0.60;;
71759;SDS011;59919;48.112;16.280;2022-08-19T04:38:09;1.13;;;0.82;;
71759;SDS011;59919;48.112;16.280;2022-08-19T04:40:41;0.93;;;0.82;;
71759;SDS011;59919;48.112;16.280;2022-08-19T04:43:36;0.60;;;0.60;;
71759;SDS011;59919;48.112;16.280;2022-08-19T04:46:09;0.68;;;0.68;;
71759;SDS011;59919;48.112;16.280;2022-08-19T04:48:41;0.60;;;0.60;;
71759;SDS011;59919;48.112;16.280;2022-08-19T04:51:15;0.60;;;0.60;;
71759;SDS011;59919;48.112;16.280;2022-08-19T04:53:54;0.80;;;0.70;;
71759;SDS011;59919;48.112;16.280;2022-08-19T04:56:25;0.50;;;0.50;;
71759;SDS011;59919;48.112;16.280;2022-08-19T04:59:01;0.88;;;0.70;;
71759;SDS011;59919;48.112;16.280;2022-08-19T05:01:42;1.10;;;0.90;;
71759;SDS011;59919;48.112;16.280;2022-08-19T05:04:13;0.70;;;0.50;;
71759;SDS011;59919;48.112;16.280;2022-08-19T05:06:45;1.30;;;0.60;;
71759;SDS011;59919;48.112;16.280;2022-08-19T05:09:21;0.60;;;0.60;;
71759;SDS011;59919;48.112;16.280;2022-08-19T05:11:53;0.80;;;0.70;;
71759;SDS011;59919;48.112;16.280;2022-08-19T05:14:24;0.60;;;0.60;;
71759;SDS011;59919;48.112;16.280;2022-08-19T05:16:55;0.70;;;0.70;;
71759;SDS011;59919;48.112;16.280;2022-08-19T05:19:26;0.90;;;0.70;;
71759;SDS011;59919;48.112;16.280;2022-08-19T05:22:16;2.13;;;0.80;;
71759;SDS011;59919;48.112;16.280;2022-08-19T05:25:09;1.40;;;0.80;;
71759;SDS011;59919;48.112;16.280;2022-08-19T05:27:45;1.15;;;0.70;;
71759;SDS011;59919;48.112;16.280;2022-08-19T05:30:19;0.80;;;0.60;;
71759;SDS011;59919;48.112;16.280;2022-08-19T05:32:53;0.73;;;0.63;;
71759;SDS011;59919;48.112;16.280;2022-08-19T05:35:26;1.38;;;0.70;;
71759;SDS011;59919;48.112;16.280;2022-08-19T05:37:58;0.70;;;0.70;;
71759;SDS011;59919;48.112;16.280;2022-08-19T05:40:35;0.50;;;0.50;;
71759;SDS011;59919;48.112;16.280;2022-08-19T05:43:09;0.60;;;0.60;;
71759;SDS011;59919;48.112;16.280;2022-08-19T05:45:43;0.70;;;0.70;;
71759;SDS011;59919;48.112;16.280;2022-08-19T05:48:17;0.70;;;0.70;;
71759;SDS011;59919;48.112;16.280;2022-08-19T05:50:51;0.73;;;0.57;;
71759;SDS011;59919;48.112;16.280;2022-08-19T05:53:24;0.50;;;0.50;;
71759;SDS011;59919;48.112;16.280;2022-08-19T05:56:08;0.73;;;0.70;;
71759;SDS011;59919;48.112;16.280;2022-08-19T05:58:46;1.13;;;0.70;;
71759;SDS011;59919;48.112;16.280;2022-08-19T06:01:28;1.20;;;0.63;;
71759;SDS011;59919;48.112;16.280;2022-08-19T06:04:00;0.90;;;0.63;;
71759;SDS011;59919;48.112;16.280;2022-08-19T06:06:34;0.73;;;0.73;;
71759;SDS011;59919;48.112;16.280;2022-08-19T06:09:08;1.25;;;0.73;;
71759;SDS011;59919;48.112;16.280;2022-08-19T06:11:46;0.73;;;0.68;;
71759;SDS011;59919;48.112;16.280;2022-08-19T06:14:25;1.00;;;0.60;;
71759;SDS011;59919;48.112;16.280;2022-08-19T06:16:58;0.80;;;0.60;;
71759;SDS011;59919;48.112;16.280;2022-08-19T06:19:32;0.98;;;0.65;;
71759;SDS011;59919;48.112;16.280;2022-08-19T06:22:05;0.70;;;0.60;;
71759;SDS011;59919;48.112;16.280;2022-08-19T06:24:37;0.90;;;0.60;;
71759;SDS011;59919;48.112;16.280;2022-08-19T06:27:08;0.73;;;0.60;;
71759;SDS011;59919;48.112;16.280;2022-08-19T06:29:44;0.68;;;0.60;;
71759;SDS011;59919;48.112;16.280;2022-08-19T06:32:17;0.75;;;0.70;;
71759;SDS011;59919;48.112;16.280;2022-08-19T06:34:49;0.90;;;0.70;;
71759;SDS011;59919;48.112;16.280;2022-08-19T06:37:22;0.85;;;0.65;;
71759;SDS011;59919;48.112;16.280;2022-08-19T06:39:55;0.88;;;0.60;;
71759;SDS011;59919;48.112;16.280;2022-08-19T06:42:27;1.20;;;0.80;;
71759;SDS011;59919;48.112;16.280;2022-08-19T06:45:01;0.85;;;0.70;;
71759;SDS011;59919;48.112;16.280;2022-08-19T06:47:36;0.88;;;0.60;;
71759;SDS011;59919;48.112;16.280;2022-08-19T06:50:08;0.85;;;0.85;;
71759;SDS011;59919;48.112;16.280;2022-08-19T06:52:39;0.60;;;0.60;;
71759;SDS011;59919;48.112;16.280;2022-08-19T06:55:17;1.08;;;0.73;;
71759;SDS011;59919;48.112;16.280;2022-08-19T06:57:51;0.73;;;0.70;;
71759;SDS011;59919;48.112;16.280;2022-08-19T07:00:23;0.65;;;0.57;;
71759;SDS011;59919;48.112;16.280;2022-08-19T07:02:54;0.77;;;0.70;;
71759;SDS011;59919;48.112;16.280;2022-08-19T07:05:25;1.60;;;0.90;;
71759;SDS011;59919;48.112;16.280;2022-08-19T07:07:56;1.00;;;0.70;;
71759;SDS011;59919;48.112;16.280;2022-08-19T07:10:28;0.65;;;0.60;;
71759;SDS011;59919;48.112;16.280;2022-08-19T07:13:05;0.55;;;0.55;;
71759;SDS011;59919;48.112;16.280;2022-08-19T07:15:38;0.80;;;0.65;;
71759;SDS011;59919;48.112;16.280;2022-08-19T07:18:12;0.93;;;0.80;;
71759;SDS011;59919;48.112;16.280;2022-08-19T07:20:43;0.70;;;0.70;;
71759;SDS011;59919;48.112;16.280;2022-08-19T07:23:15;1.20;;;0.73;;
71759;SDS011;59919;48.112;16.280;2022-08-19T07:25:46;1.20;;;0.70;;
71759;SDS011;59919;48.112;16.280;2022-08-19T07:28:19;1.52;;;0.80;;
71759;SDS011;59919;48.112;16.280;2022-08-19T07:30:51;0.60;;;0.60;;
71759;SDS011;59919;48.112;16.280;2022-08-19T07:33:25;0.70;;;0.70;;
71759;SDS011;59919;48.112;16.280;2022-08-19T07:35:57;1.52;;;0.90;;
71759;SDS011;59919;48.112;16.280;2022-08-19T07:38:31;0.70;;;0.70;;
71759;SDS011;59919;48.112;16.280;2022-08-19T07:41:04;1.27;;;0.60;;
71759;SDS011;59919;48.112;16.280;2022-08-19T07:43:39;1.67;;;0.88;;
71759;SDS011;59919;48.112;16.280;2022-08-19T07:46:14;0.80;;;0.80;;
71759;SDS011;59919;48.112;16.280;2022-08-19T07:48:51;0.98;;;0.60;;
71759;SDS011;59919;48.112;16.280;2022-08-19T07:51:23;2.97;;;0.80;;
71759;SDS011;59919;48.112;16.280;2022-08-19T07:53:54;1.67;;;0.85;;
71759;SDS011;59919;48.112;16.280;2022-08-19T07:56:28;0.80;;;0.80;;
71759;SDS011;59919;48.112;16.280;2022-08-19T07:59:04;1.10;;;0.82;;
71759;SDS011;59919;48.112;16.280;2022-08-19T08:01:39;0.90;;;0.85;;
71759;SDS011;59919;48.112;16.280;2022-08-19T08:04:12;0.77;;;0.70;;
71759;SDS011;59919;48.112;16.280;2022-08-19T08:07:02;0.95;;;0.80;;
71759;SDS011;59919;48.112;16.280;2022-08-19T08:09:53;0.80;;;0.80;;
71759;SDS011;59919;48.112;16.280;2022-08-19T08:12:29;1.35;;;0.80;;
71759;SDS011;59919;48.112;16.280;2022-08-19T08:17:40;0.82;;;0.70;;
71759;SDS011;59919;48.112;16.280;2022-08-19T08:20:11;1.15;;;0.80;;
71759;SDS011;59919;48.112;16.280;2022-08-19T08:22:48;0.80;;;0.80;;
71759;SDS011;59919;48.112;16.280;2022-08-19T08:25:37;1.10;;;0.90;;
71759;SDS011;59919;48.112;16.280;2022-08-19T08:28:11;1.95;;;0.90;;
71759;SDS011;59919;48.112;16.280;2022-08-19T08:30:45;1.10;;;0.90;;
71759;SDS011;59919;48.112;16.280;2022-08-19T08:33:18;0.88;;;0.75;;
71759;SDS011;59919;48.112;16.280;2022-08-19T08:35:51;1.35;;;1.10;;
71759;SDS011;59919;48.112;16.280;2022-08-19T08:38:25;0.95;;;0.80;;
71759;SDS011;59919;48.112;16.280;2022-08-19T08:41:02;1.25;;;0.80;;
71759;SDS011;59919;48.112;16.280;2022-08-19T08:43:58;1.25;;;1.10;;
71759;SDS011;59919;48.112;16.280;2022-08-19T08:46:39;0.90;;;0.90;;
71759;SDS011;59919;48.112;16.280;2022-08-19T08:49:20;1.10;;;1.00;;
71759;SDS011;59919;48.112;16.280;2022-08-19T08:52:00;1.40;;;1.00;;
71759;SDS011;59919;48.112;16.280;2022-08-19T08:54:57;0.70;;;0.70;;
71759;SDS011;59919;48.112;16.280;2022-08-19T09:00:19;1.30;;;0.95;;
71759;SDS011;59919;48.112;16.280;2022-08-19T09:02:56;0.82;;;0.80;;
71759;SDS011;59919;48.112;16.280;2022-08-19T09:05:45;1.08;;;0.95;;
71759;SDS011;59919;48.112;16.280;2022-08-19T09:11:10;0.73;;;0.70;;
71759;SDS011;59919;48.112;16.280;2022-08-19T09:13:56;1.08;;;0.90;;
71759;SDS011;59919;48.112;16.280;2022-08-19T09:16:42;0.90;;;0.80;;
71759;SDS011;59919;48.112;16.280;2022-08-19T09:19:16;1.08;;;0.82;;
71759;SDS011;59919;48.112;16.280;2022-08-19T09:21:48;1.08;;;0.98;;
71759;SDS011;59919;48.112;16.280;2022-08-19T09:24:23;1.05;;;0.95;;
71759;SDS011;59919;48.112;16.280;2022-08-19T09:26:54;0.80;;;0.80;;
71759;SDS011;59919;48.112;16.280;2022-08-19T09:29:37;1.08;;;0.98;;
71759;SDS011;59919;48.112;16.280;2022-08-19T09:32:16;0.80;;;0.80;;
71759;SDS011;59919;48.112;16.280;2022-08-19T09:34:49;0.80;;;0.80;;
71759;SDS011;59919;48.112;16.280;2022-08-19T09:37:25;0.97;;;0.97;;
71759;SDS011;59919;48.112;16.280;2022-08-19T09:39:56;0.80;;;0.80;;
71759;SDS011;59919;48.112;16.280;2022-08-19T09:42:29;0.93;;;0.90;;
71759;SDS011;59919;48.112;16.280;2022-08-19T09:45:01;0.88;;;0.80;;
71759;SDS011;59919;48.112;16.280;2022-08-19T09:47:37;0.95;;;0.90;;
71759;SDS011;59919;48.112;16.280;2022-08-19T09:50:11;0.70;;;0.70;;
71759;SDS011;59919;48.112;16.280;2022-08-19T09:52:47;1.00;;;0.77;;
71759;SDS011;59919;48.112;16.280;2022-08-19T09:55:18;1.33;;;0.93;;
71759;SDS011;59919;48.112;16.280;2022-08-19T09:57:49;1.10;;;0.93;;
71759;SDS011;59919;48.112;16.280;2022-08-19T10:00:26;1.17;;;1.00;;
71759;SDS011;59919;48.112;16.280;2022-08-19T10:03:03;1.08;;;1.00;;
71759;SDS011;59919;48.112;16.280;2022-08-19T10:05:37;0.90;;;0.90;;
71759;SDS011;59919;48.112;16.280;2022-08-19T10:08:22;1.08;;;0.90;;
71759;SDS011;59919;48.112;16.280;2022-08-19T10:10:56;0.93;;;0.90;;
71759;SDS011;59919;48.112;16.280;2022-08-19T10:13:34;1.00;;;0.90;;
71759;SDS011;59919;48.112;16.280;2022-08-19T10:16:09;1.70;;;1.13;;
71759;SDS011;59919;48.112;16.280;2022-08-19T10:18:47;1.30;;;1.00;;
71759;SDS011;59919;48.112;16.280;2022-08-19T10:21:22;1.27;;;0.90;;
71759;SDS011;59919;48.112;16.280;2022-08-19T10:23:59;1.00;;;0.85;;
71759;SDS011;59919;48.112;16.280;2022-08-19T10:26:38;1.00;;;0.90;;
71759;SDS011;59919;48.112;16.280;2022-08-19T10:29:12;1.40;;;1.30;;
71759;SDS011;59919;48.112;16.280;2022-08-19T10:31:46;1.10;;;1.00;;
71759;SDS011;59919;48.112;16.280;2022-08-19T10:34:19;1.55;;;0.90;;
71759;SDS011;59919;48.112;16.280;2022-08-19T10:36:50;1.73;;;0.90;;
71759;SDS011;59919;48.112;16.280;2022-08-19T10:39:26;1.42;;;1.10;;
71759;SDS011;59919;48.112;16.280;2022-08-19T10:42:06;1.02;;;0.90;;
71759;SDS011;59919;48.112;16.280;2022-08-19T10:44:43;1.10;;;0.85;;
71759;SDS011;59919;48.112;16.280;2022-08-19T10:47:20;1.25;;;1.00;;
71759;SDS011;59919;48.112;16.280;2022-08-19T10:49:58;1.33;;;1.00;;
71759;SDS011;59919;48.112;16.280;2022-08-19T10:52:49;1.25;;;1.10;;
71759;SDS011;59919;48.112;16.280;2022-08-19T10:55:21;1.23;;;0.82;;
71759;SDS011;59919;48.112;16.280;2022-08-19T10:58:13;1.40;;;1.13;;
71759;SDS011;59919;48.112;16.280;2022-08-19T11:00:56;1.50;;;1.13;;
71759;SDS011;59919;48.112;16.280;2022-08-19T11:03:28;0.80;;;0.80;;
71759;SDS011;59919;48.112;16.280;2022-08-19T11:06:02;1.20;;;1.08;;
71759;SDS011;59919;48.112;16.280;2022-08-19T11:08:35;1.05;;;0.95;;
71759;SDS011;59919;48.112;16.280;2022-08-19T11:11:15;1.00;;;1.00;;
71759;SDS011;59919;48.112;16.280;2022-08-19T11:13:48;1.13;;;1.00;;
71759;SDS011;59919;48.112;16.280;2022-08-19T11:16:21;1.17;;;1.08;;
71759;SDS011;59919;48.112;16.280;2022-08-19T11:18:59;0.90;;;0.90;;
71759;SDS011;59919;48.112;16.280;2022-08-19T11:21:35;1.50;;;1.40;;
71759;SDS011;59919;48.112;16.280;2022-08-19T11:24:12;1.00;;;1.00;;
71759;SDS011;59919;48.112;16.280;2022-08-19T11:26:46;1.65;;;1.10;;
71759;SDS011;59919;48.112;16.280;2022-08-19T11:29:22;1.20;;;1.10;;
71759;SDS011;59919;48.112;16.280;2022-08-19T11:31:56;0.90;;;0.90;;
71759;SDS011;59919;48.112;16.280;2022-08-19T11:34:27;1.95;;;1.10;;
71759;SDS011;59919;48.112;16.280;2022-08-19T11:37:02;1.10;;;0.98;;
71759;SDS011;59919;48.112;16.280;2022-08-19T11:39:34;1.17;;;0.93;;
71759;SDS011;59919;48.112;16.280;2022-08-19T11:42:09;1.10;;;0.90;;
71759;SDS011;59919;48.112;16.280;2022-08-19T11:44:59;0.93;;;0.93;;
71759;SDS011;59919;48.112;16.280;2022-08-19T11:47:30;1.77;;;1.08;;
71759;SDS011;59919;48.112;16.280;2022-08-19T11:50:01;1.00;;;0.90;;
71759;SDS011;59919;48.112;16.280;2022-08-19T11:52:33;1.02;;;0.93;;
71759;SDS011;59919;48.112;16.280;2022-08-19T11:55:04;1.15;;;0.90;;
71759;SDS011;59919;48.112;16.280;2022-08-19T11:57:35;1.27;;;1.17;;
71759;SDS011;59919;48.112;16.280;2022-08-19T12:00:10;1.23;;;1.08;;
71759;SDS011;59919;48.112;16.280;2022-08-19T12:02:44;0.90;;;0.90;;
71759;SDS011;59919;48.112;16.280;2022-08-19T12:05:15;1.38;;;1.00;;
71759;SDS011;59919;48.112;16.280;2022-08-19T12:07:49;1.10;;;1.00;;
71759;SDS011;59919;48.112;16.280;2022-08-19T12:10:22;1.15;;;1.05;;
71759;SDS011;59919;48.112;16.280;2022-08-19T12:12:54;1.25;;;0.93;;
71759;SDS011;59919;48.112;16.280;2022-08-19T12:15:28;1.30;;;1.00;;
71759;SDS011;59919;48.112;16.280;2022-08-19T12:17:59;1.10;;;1.00;;
71759;SDS011;59919;48.112;16.280;2022-08-19T12:20:36;1.30;;;1.20;;
71759;SDS011;59919;48.112;16.280;2022-08-19T12:23:09;1.33;;;1.08;;
71759;SDS011;59919;48.112;16.280;2022-08-19T12:25:44;0.90;;;0.90;;
71759;SDS011;59919;48.112;16.280;2022-08-19T12:28:22;1.35;;;0.90;;
71759;SDS011;59919;48.112;16.280;2022-08-19T12:30:57;1.05;;;0.95;;
71759;SDS011;59919;48.112;16.280;2022-08-19T12:33:33;1.17;;;1.08;;
71759;SDS011;59919;48.112;16.280;2022-08-19T12:36:06;1.20;;;0.95;;
71759;SDS011;59919;48.112;16.280;2022-08-19T12:38:40;1.27;;;1.17;;
71759;SDS011;59919;48.112;16.280;2022-08-19T12:41:12;1.60;;;1.20;;
71759;SDS011;59919;48.112;16.280;2022-08-19T12:43:47;0.90;;;0.90;;
71759;SDS011;59919;48.112;16.280;2022-08-19T12:46:22;1.10;;;1.00;;
71759;SDS011;59919;48.112;16.280;2022-08-19T12:48:53;1.40;;;1.30;;
71759;SDS011;59919;48.112;16.280;2022-08-19T12:51:24;1.20;;;1.10;;
71759;SDS011;59919;48.112;16.280;2022-08-19T12:53:57;1.40;;;1.10;;
71759;SDS011;59919;48.112;16.280;2022-08-19T12:56:33;1.50;;;1.10;;
71759;SDS011;59919;48.112;16.280;2022-08-19T12:59:04;1.50;;;1.00;;
71759;SDS011;59919;48.112;16.280;2022-08-19T13:01:38;1.15;;;1.02;;
71759;SDS011;59919;48.112;16.280;2022-08-19T13:04:13;1.20;;;1.05;;
71759;SDS011;59919;48.112;16.280;2022-08-19T13:06:45;1.33;;;1.23;;
71759;SDS011;59919;48.112;16.280;2022-08-19T13:09:18;1.88;;;1.20;;
71759;SDS011;59919;48.112;16.280;2022-08-19T13:11:49;1.30;;;1.20;;
71759;SDS011;59919;48.112;16.280;2022-08-19T13:14:20;2.00;;;1.33;;
71759;SDS011;59919;48.112;16.280;2022-08-19T13:16:51;1.17;;;1.00;;
71759;SDS011;59919;48.112;16.280;2022-08-19T13:19:22;1.33;;;1.00;;
71759;SDS011;59919;48.112;16.280;2022-08-19T13:21:55;1.33;;;1.23;;
71759;SDS011;59919;48.112;16.280;2022-08-19T13:24:29;2.05;;;1.17;;
71759;SDS011;59919;48.112;16.280;2022-08-19T13:27:03;1.60;;;1.08;;
71759;SDS011;59919;48.112;16.280;2022-08-19T13:29:40;0.90;;;0.90;;
71759;SDS011;59919;48.112;16.280;2022-08-19T13:32:32;1.02;;;0.98;;
71759;SDS011;59919;48.112;16.280;2022-08-19T13:35:22;1.33;;;1.15;;
71759;SDS011;59919;48.112;16.280;2022-08-19T13:37:53;1.95;;;1.20;;
71759;SDS011;59919;48.112;16.280;2022-08-19T13:40:24;1.00;;;0.90;;
71759;SDS011;59919;48.112;16.280;2022-08-19T13:42:56;1.30;;;0.95;;
71759;SDS011;59919;48.112;16.280;2022-08-19T13:45:29;1.20;;;1.10;;
71759;SDS011;59919;48.112;16.280;2022-08-19T13:48:06;1.75;;;0.93;;
71759;SDS011;59919;48.112;16.280;2022-08-19T13:50:40;2.20;;;1.00;;
71759;SDS011;59919;48.112;16.280;2022-08-19T13:53:16;1.58;;;1.00;;
71759;SDS011;59919;48.112;16.280;2022-08-19T13:55:48;1.38;;;1.17;;
71759;SDS011;59919;48.112;16.280;2022-08-19T13:58:21;1.45;;;1.23;;
71759;SDS011;59919;48.112;16.280;2022-08-19T14:00:53;1.10;;;0.95;;
71759;SDS011;59919;48.112;16.280;2022-08-19T14:03:25;2.13;;;1.30;;
71759;SDS011;59919;48.112;16.280;2022-08-19T14:05:58;2.55;;;1.25;;
71759;SDS011;59919;48.112;16.280;2022-08-19T14:08:32;1.35;;;1.08;;
71759;SDS011;59919;48.112;16.280;2022-08-19T14:11:09;1.67;;;1.33;;
71759;SDS011;59919;48.112;16.280;2022-08-19T14:13:41;1.10;;;1.00;;
71759;SDS011;59919;48.112;16.280;2022-08-19T14:16:19;1.42;;;1.00;;
71759;SDS011;59919;48.112;16.280;2022-08-19T14:18:52;1.67;;;1.30;;
71759;SDS011;59919;48.112;16.280;2022-08-19T14:21:25;2.58;;;1.33;;
71759;SDS011;59919;48.112;16.280;2022-08-19T14:24:01;1.67;;;1.00;;
71759;SDS011;59919;48.112;16.280;2022-08-19T14:26:35;1.20;;;1.00;;
71759;SDS011;59919;48.112;16.280;2022-08-19T14:29:07;1.15;;;1.05;;
71759;SDS011;59919;48.112;16.280;2022-08-19T14:31:40;1.92;;;1.05;;
71759;SDS011;59919;48.112;16.280;2022-08-19T14:34:16;1.20;;;1.10;;
71759;SDS011;59919;48.112;16.280;2022-08-19T14:36:47;1.75;;;1.08;;
71759;SDS011;59919;48.112;16.280;2022-08-19T14:39:21;1.48;;;1.33;;
71759;SDS011;59919;48.112;16.280;2022-08-19T14:41:52;1.08;;;0.98;;
71759;SDS011;59919;48.112;16.280;2022-08-19T14:44:23;2.25;;;1.20;;
71759;SDS011;59919;48.112;16.280;2022-08-19T14:46:56;1.25;;;1.13;;
71759;SDS011;59919;48.112;16.280;2022-08-19T14:49:27;1.67;;;1.00;;
71759;SDS011;59919;48.112;16.280;2022-08-19T14:52:04;2.72;;;1.15;;
71759;SDS011;59919;48.112;16.280;2022-08-19T14:54:36;1.58;;;1.48;;
71759;SDS011;59919;48.112;16.280;2022-08-19T14:57:13;2.17;;;1.40;;
71759;SDS011;59919;48.112;16.280;2022-08-19T14:59:49;1.42;;;1.15;;
71759;SDS011;59919;48.112;16.280;2022-08-19T15:02:20;1.30;;;1.10;;
71759;SDS011;59919;48.112;16.280;2022-08-19T15:04:52;1.95;;;1.15;;
71759;SDS011;59919;48.112;16.280;2022-08-19T15:07:30;1.20;;;1.10;;
71759;SDS011;59919;48.112;16.280;2022-08-19T15:10:08;1.73;;;1.20;;
71759;SDS011;59919;48.112;16.280;2022-08-19T15:12:40;1.52;;;1.15;;
71759;SDS011;59919;48.112;16.280;2022-08-19T15:15:14;2.00;;;1.20;;
71759;SDS011;59919;48.112;16.280;2022-08-19T15:17:50;1.67;;;1.13;;
71759;SDS011;59919;48.112;16.280;2022-08-19T15:20:24;1.75;;;1.27;;
71759;SDS011;59919;48.112;16.280;2022-08-19T15:22:55;2.25;;;1.35;;
71759;SDS011;59919;48.112;16.280;2022-08-19T15:25:29;2.28;;;1.20;;
71759;SDS011;59919;48.112;16.280;2022-08-19T15:28:05;1.60;;;1.02;;
71759;SDS011;59919;48.112;16.280;2022-08-19T15:30:44;1.13;;;1.00;;
71759;SDS011;59919;48.112;16.280;2022-08-19T15:33:16;2.78;;;1.17;;
71759;SDS011;59919;48.112;16.280;2022-08-19T15:35:54;1.88;;;1.05;;